Time;durP1;ratioP1;P1;durP2;ratioP2;P2;SDS_P1;SDS_P2;PMS_P1;PMS_P2;Temp;Humidity;BMP_temperature;BMP_pressure;BME280_temperature;BME280_humidity;BME280_pressure;Samples;Min_cycle;Max_cycle;Signal;HPM_P1;HPM_P2
2021/07/06 00:00:57;;;;;;;11.70;9.60;;;614.60;2432.00;;;;;;5073150;28;20074;-75
2021/07/06 00:03:23;;;;;;;13.50;10.20;;;614.50;2432.00;;;;;;5072455;28;20025;-75
2021/07/06 00:05:49;;;;;;;13.05;10.10;;;614.60;2432.00;;;;;;5072910;28;20106;-75
2021/07/06 00:08:15;;;;;;;11.65;10.45;;;614.50;2432.00;;;;;;5072807;28;20028;-73
2021/07/06 00:10:40;;;;;;;12.07;10.57;;;614.50;2432.00;;;;;;5073297;28;20025;-73
2021/07/06 00:13:06;;;;;;;11.23;10.02;;;614.50;2432.00;;;;;;5073121;28;20032;-73
2021/07/06 00:15:34;;;;;;;14.68;10.60;;;614.50;2432.00;;;;;;5074620;28;20097;-73
2021/07/06 00:18:00;;;;;;;16.13;12.10;;;614.50;2432.00;;;;;;5073244;28;20032;-72
2021/07/06 00:20:27;;;;;;;13.55;10.85;;;614.50;2432.00;;;;;;5072819;28;20513;-72
2021/07/06 00:22:54;;;;;;;13.90;10.15;;;614.50;2432.00;;;;;;5072659;28;20113;-73
2021/07/06 00:25:20;;;;;;;11.20;10.10;;;614.50;2432.00;;;;;;5072357;28;20174;-72
2021/07/06 00:27:45;;;;;;;12.90;10.30;;;614.40;2432.00;;;;;;5072890;28;20103;-72
2021/07/06 00:30:12;;;;;;;12.80;10.15;;;614.40;2432.00;;;;;;5072663;28;20032;-72
2021/07/06 00:32:38;;;;;;;15.43;10.75;;;614.40;2432.00;;;;;;5073488;28;20036;-73
2021/07/06 00:35:06;;;;;;;12.15;10.50;;;614.40;2432.00;;;;;;5073298;28;20020;-72
2021/07/06 00:37:32;;;;;;;12.70;10.45;;;614.40;2432.00;;;;;;5072846;28;20027;-71
2021/07/06 00:39:58;;;;;;;11.57;10.38;;;589.70;2432.00;;;;;;5072634;28;20422;-72
2021/07/06 00:42:24;;;;;;;12.07;9.90;;;589.70;2432.00;;;;;;5072759;28;20053;-73
2021/07/06 00:44:52;;;;;;;11.80;10.20;;;589.70;2432.00;;;;;;5072997;28;20025;-71
2021/07/06 00:47:33;;;;;;;19.25;12.13;;;589.60;2432.00;;;;;;5073327;28;20067;-73
2021/07/06 00:49:59;;;;;;;17.30;11.52;;;589.60;2432.00;;;;;;5072571;28;20032;-72
2021/07/06 00:52:26;;;;;;;13.10;11.05;;;589.60;2432.00;;;;;;5072206;28;20029;-70
2021/07/06 00:54:51;;;;;;;12.93;10.43;;;589.60;2432.00;;;;;;5073190;28;20047;-71
2021/07/06 00:57:28;;;;;;;12.18;10.38;;;589.50;2432.00;;;;;;5073523;28;20060;-70
2021/07/06 01:00:04;;;;;;;12.35;10.20;;;589.50;2432.00;;;;;;5073022;28;20032;-68
2021/07/06 01:02:30;;;;;;;10.57;9.40;;;589.40;2432.00;;;;;;5073795;28;20497;-72
2021/07/06 01:04:55;;;;;;;12.48;10.15;;;589.40;2432.00;;;;;;5074378;28;20104;-67
2021/07/06 01:07:22;;;;;;;11.55;10.00;;;589.40;2432.00;;;;;;5073111;28;20390;-73
2021/07/06 01:09:48;;;;;;;11.95;10.65;;;589.30;2432.00;;;;;;5072342;28;20471;-73
2021/07/06 01:12:13;;;;;;;12.75;10.43;;;589.30;2432.00;;;;;;5072449;28;20047;-73
2021/07/06 01:14:39;;;;;;;11.80;10.43;;;589.20;2432.00;;;;;;5072683;28;20502;-72
2021/07/06 01:17:06;;;;;;;12.07;10.45;;;589.20;2432.00;;;;;;5076037;28;20024;-72
2021/07/06 01:19:32;;;;;;;12.52;10.63;;;589.10;2432.00;;;;;;5077571;28;20020;-71
2021/07/06 01:22:05;;;;;;;11.38;10.27;;;589.10;2432.00;;;;;;5076862;28;20027;-71
2021/07/06 01:24:34;;;;;;;12.00;10.70;;;589.10;2432.00;;;;;;5076230;28;20416;-71
2021/07/06 01:27:00;;;;;;;12.40;11.15;;;589.00;2432.00;;;;;;5076272;28;20111;-72
2021/07/06 01:29:26;;;;;;;12.77;10.60;;;588.90;2432.00;;;;;;5075895;28;20108;-71
2021/07/06 01:31:52;;;;;;;11.77;10.57;;;588.90;2432.00;;;;;;5078007;28;20032;-73
2021/07/06 01:34:18;;;;;;;12.43;11.13;;;588.80;2432.00;;;;;;5075473;28;20024;-73
2021/07/06 01:36:45;;;;;;;13.05;10.82;;;564.10;2432.00;;;;;;5075841;28;20050;-71
2021/07/06 01:39:11;;;;;;;11.52;10.35;;;564.00;2432.00;;;;;;5075465;28;20078;-71
2021/07/06 01:41:42;;;;;;;13.65;10.95;;;563.90;2432.00;;;;;;5075566;28;20016;-71
2021/07/06 01:44:38;;;;;;;12.88;10.57;;;563.80;2432.00;;;;;;5075775;28;20052;-72
2021/07/06 01:47:03;;;;;;;12.38;10.85;;;563.70;2432.00;;;;;;5075157;28;20033;-72
2021/07/06 01:49:29;;;;;;;12.55;10.93;;;563.60;2432.00;;;;;;5056961;28;20051;-71
2021/07/06 01:51:55;;;;;;;11.95;10.75;;;563.60;2432.00;;;;;;5055761;28;20029;-71
2021/07/06 01:54:21;;;;;;;13.30;10.98;;;563.50;2432.00;;;;;;5056555;28;20044;-70
2021/07/06 01:56:48;;;;;;;12.32;11.02;;;563.40;2432.00;;;;;;5059472;28;20471;-71
2021/07/06 01:59:14;;;;;;;12.15;10.88;;;563.40;2432.00;;;;;;5057263;28;20020;-73
2021/07/06 02:01:43;;;;;;;12.20;11.00;;;563.30;2432.00;;;;;;5055793;28;20014;-74
2021/07/06 02:04:09;;;;;;;12.52;11.23;;;563.30;2432.00;;;;;;5055130;28;20025;-79
2021/07/06 02:06:34;;;;;;;12.20;11.00;;;563.30;2432.00;;;;;;5055171;28;20036;-81
2021/07/06 02:09:01;;;;;;;15.50;11.85;;;563.20;2432.00;;;;;;5055127;28;20029;-82
2021/07/06 02:11:27;;;;;;;12.95;11.55;;;563.30;2432.00;;;;;;5055005;28;20020;-76
2021/07/06 02:13:54;;;;;;;13.40;11.98;;;563.20;2432.00;;;;;;5054901;28;20025;-77
2021/07/06 02:16:20;;;;;;;14.07;11.52;;;563.30;2432.00;;;;;;5041330;28;20033;-77
2021/07/06 02:18:47;;;;;;;14.80;11.68;;;563.30;2432.00;;;;;;5056580;28;20053;-72
2021/07/06 02:21:13;;;;;;;15.07;12.80;;;563.30;2432.00;;;;;;5055516;28;20086;-73
2021/07/06 02:23:39;;;;;;;16.88;12.90;;;563.30;2432.00;;;;;;5056828;28;20052;-72
2021/07/06 02:26:07;;;;;;;16.15;13.25;;;563.30;2432.00;;;;;;5056441;28;20053;-79
2021/07/06 02:28:35;;;;;;;16.67;13.02;;;563.30;2432.00;;;;;;5054938;28;20025;-79
2021/07/06 02:31:02;;;;;;;14.35;12.65;;;563.30;2432.00;;;;;;5054569;28;20075;-78
2021/07/06 02:33:32;;;;;;;14.15;12.65;;;563.20;2432.00;;;;;;5054908;28;20037;-77
2021/07/06 02:36:00;;;;;;;14.82;12.50;;;563.20;2432.00;;;;;;5054884;28;20037;-76
2021/07/06 02:38:26;;;;;;;14.55;13.05;;;563.20;2432.00;;;;;;5054879;28;20100;-78
2021/07/06 02:40:51;;;;;;;14.23;12.73;;;538.50;2406.40;;;;;;5054597;28;20446;-78
2021/07/06 02:43:17;;;;;;;15.70;12.95;;;538.40;2406.40;;;;;;5054183;28;20519;-79
2021/07/06 02:45:45;;;;;;;15.50;12.70;;;538.30;2406.40;;;;;;5054432;28;20028;-78
2021/07/06 02:48:10;;;;;;;17.00;13.65;;;538.20;2406.40;;;;;;5054481;28;20573;-72
2021/07/06 02:50:39;;;;;;;15.65;13.13;;;538.20;2406.40;;;;;;5056410;28;20056;-73
2021/07/06 02:53:05;;;;;;;15.57;13.15;;;538.20;2406.40;;;;;;5055748;28;20078;-78
2021/07/06 02:55:31;;;;;;;16.95;13.73;;;538.30;2406.40;;;;;;5054371;28;20475;-77
2021/07/06 02:57:56;;;;;;;18.25;14.55;;;538.30;2406.40;;;;;;5054439;28;20029;-78
2021/07/06 03:00:23;;;;;;;16.70;14.77;;;538.40;2406.40;;;;;;5058138;28;20020;-71
2021/07/06 03:03:01;;;;;;;16.55;14.57;;;538.30;2406.40;;;;;;5062610;28;20039;-72
2021/07/06 03:05:29;;;;;;;15.25;13.65;;;538.30;2406.40;;;;;;5062709;28;20057;-78
2021/07/06 03:07:55;;;;;;;15.43;13.85;;;538.30;2406.40;;;;;;5061861;28;20021;-79
2021/07/06 03:10:30;;;;;;;17.73;15.18;;;538.30;2406.40;;;;;;5055519;28;20129;-80
2021/07/06 03:12:56;;;;;;;18.88;16.10;;;538.30;2406.40;;;;;;5054307;28;20033;-79
2021/07/06 03:15:25;;;;;;;22.88;16.25;;;538.30;2406.40;;;;;;5054245;28;20024;-71
2021/07/06 03:17:52;;;;;;;17.95;16.08;;;538.20;2406.40;;;;;;5055210;28;20028;-71
2021/07/06 03:20:20;;;;;;;17.90;15.98;;;538.20;2406.40;;;;;;5053903;28;20017;-73
2021/07/06 03:22:46;;;;;;;18.75;16.73;;;538.20;2406.40;;;;;;5053643;28;20037;-72
2021/07/06 03:25:14;;;;;;;18.75;15.77;;;538.20;2406.40;;;;;;5053510;28;20029;-73
2021/07/06 03:27:41;;;;;;;21.48;16.48;;;538.10;2406.40;;;;;;5053450;28;20548;-79
2021/07/06 03:30:16;;;;;;;21.13;15.88;;;538.00;2406.40;;;;;;5053507;28;20029;-77
2021/07/06 03:32:41;;;;;;;18.63;16.52;;;538.00;2406.40;;;;;;5053658;28;20115;-79
2021/07/06 03:35:08;;;;;;;22.10;16.17;;;538.00;2406.40;;;;;;5053587;28;20158;-76
2021/07/06 03:37:34;;;;;;;19.65;17.17;;;538.10;2406.40;;;;;;5052497;28;20025;-78
2021/07/06 03:40:00;;;;;;;25.63;18.35;;;538.00;2406.40;;;;;;5053047;28;20498;-72
2021/07/06 03:42:26;;;;;;;22.52;18.10;;;538.00;2406.40;;;;;;5052870;28;20123;-73
2021/07/06 03:44:52;;;;;;;28.27;23.42;;;538.00;2406.40;;;;;;5052862;28;20491;-73
2021/07/06 03:47:17;;;;;;;46.67;34.05;;;538.10;2406.40;;;;;;5053091;28;20017;-73
2021/07/06 03:49:43;;;;;;;26.98;22.27;;;538.10;2406.40;;;;;;5053138;28;20577;-72
2021/07/06 03:52:09;;;;;;;26.92;19.73;;;538.10;2406.40;;;;;;5052734;28;20324;-73
2021/07/06 03:54:34;;;;;;;30.50;22.67;;;538.20;2406.40;;;;;;5052717;28;20021;-72
2021/07/06 03:57:00;;;;;;;98.18;54.45;;;538.20;2406.40;;;;;;5053016;28;20079;-72
2021/07/06 03:59:29;;;;;;;93.38;54.80;;;538.30;2406.40;;;;;;5051972;28;20537;-77
2021/07/06 04:01:55;;;;;;;55.63;38.35;;;538.40;2406.40;;;;;;5051469;28;20479;-77
2021/07/06 04:04:21;;;;;;;37.25;28.05;;;538.50;2406.40;;;;;;5053516;28;20024;-73
2021/07/06 04:06:46;;;;;;;31.75;23.17;;;563.20;2432.00;;;;;;5056518;28;20490;-72
2021/07/06 04:09:13;;;;;;;29.13;22.50;;;563.20;2432.00;;;;;;5054451;28;20176;-70
2021/07/06 04:11:39;;;;;;;32.78;26.00;;;563.20;2432.00;;;;;;5052729;28;20037;-72
2021/07/06 04:14:05;;;;;;;25.45;22.23;;;563.30;2432.00;;;;;;5034740;28;20151;-73
2021/07/06 04:16:31;;;;;;;33.65;27.45;;;563.40;2432.00;;;;;;5052652;28;20092;-72
2021/07/06 04:18:57;;;;;;;31.52;24.92;;;563.50;2432.00;;;;;;5052547;28;20104;-77
2021/07/06 04:21:23;;;;;;;25.85;22.73;;;563.60;2432.00;;;;;;5052523;28;20066;-77
2021/07/06 04:23:49;;;;;;;26.88;21.23;;;563.60;2432.00;;;;;;5052527;28;20103;-75
2021/07/06 04:26:15;;;;;;;25.13;19.73;;;563.60;2432.00;;;;;;5052395;28;20025;-77
2021/07/06 04:28:41;;;;;;;24.00;18.90;;;563.60;2432.00;;;;;;5052497;28;20025;-69
2021/07/06 04:31:07;;;;;;;26.17;18.83;;;563.70;2432.00;;;;;;5053525;28;20487;-73
2021/07/06 04:33:33;;;;;;;21.42;17.98;;;563.70;2432.00;;;;;;5053832;28;20025;-71
2021/07/06 04:35:58;;;;;;;22.88;18.45;;;563.80;2432.00;;;;;;5054220;28;20108;-71
2021/07/06 04:38:25;;;;;;;25.75;18.90;;;563.80;2432.00;;;;;;5055179;28;20099;-69
2021/07/06 04:40:51;;;;;;;29.00;18.98;;;563.80;2432.00;;;;;;5052160;28;20021;-72
2021/07/06 04:43:17;;;;;;;28.13;19.95;;;563.80;2432.00;;;;;;5052172;28;20507;-74
2021/07/06 04:45:43;;;;;;;26.45;19.58;;;563.80;2432.00;;;;;;5052403;28;20070;-72
2021/07/06 04:48:10;;;;;;;25.60;18.88;;;563.80;2432.00;;;;;;5052038;28;20033;-72
2021/07/06 04:50:38;;;;;;;25.98;19.05;;;563.90;2432.00;;;;;;5056332;28;20033;-78
2021/07/06 04:53:04;;;;;;;25.85;19.27;;;564.10;2432.00;;;;;;5056312;28;20020;-77
2021/07/06 04:55:30;;;;;;;22.42;19.08;;;589.10;2432.00;;;;;;5056333;28;20017;-78
2021/07/06 04:57:56;;;;;;;20.67;18.48;;;640.40;2432.00;;;;;;5056367;28;20021;-77
2021/07/06 05:00:22;;;;;;;21.35;18.23;;;692.10;2432.00;;;;;;5056238;28;20096;-76
2021/07/06 05:02:48;;;;;;;21.75;16.33;;;743.30;2432.00;;;;;;5056668;28;20060;-78
2021/07/06 05:05:14;;;;;;;21.92;16.50;;;794.30;2432.00;;;;;;5056098;28;20390;-77
2021/07/06 05:07:40;;;;;;;17.40;15.30;;;845.00;2432.00;;;;;;5056347;28;20021;-74
2021/07/06 05:10:08;;;;;;;17.88;14.63;;;870.70;2355.20;;;;;;5056221;28;20455;-78
2021/07/06 05:12:33;;;;;;;19.35;14.65;;;896.20;2201.60;;;;;;5055840;28;20471;-79
2021/07/06 05:14:59;;;;;;;16.95;14.05;;;922.00;2124.80;;;;;;5056262;28;20025;-80
2021/07/06 05:17:25;;;;;;;15.50;13.07;;;922.50;2022.40;;;;;;5056050;28;20407;-79
2021/07/06 05:19:51;;;;;;;15.07;12.40;;;947.60;1945.60;;;;;;5055907;28;20118;-78
2021/07/06 05:22:17;;;;;;;13.00;11.60;;;947.70;1894.40;;;;;;5055941;28;20024;-78
2021/07/06 05:24:42;;;;;;;15.45;11.95;;;947.70;1894.40;;;;;;5055929;28;20017;-75
2021/07/06 05:27:08;;;;;;;12.88;10.75;;;973.10;1843.20;;;;;;5055765;28;20040;-75
2021/07/06 05:29:34;;;;;;;12.32;10.95;;;948.10;1792.00;;;;;;5056014;28;20023;-75
2021/07/06 05:32:01;;;;;;;11.48;9.77;;;973.30;1766.40;;;;;;5055731;28;20463;-74
2021/07/06 05:34:26;;;;;;;11.40;9.98;;;973.20;1766.40;;;;;;5055551;28;20363;-73
2021/07/06 05:36:53;;;;;;;11.27;9.85;;;973.20;1740.80;;;;;;5055983;28;20121;-80
2021/07/06 05:39:19;;;;;;;10.40;9.40;;;922.00;1817.60;;;;;;5055837;28;20100;-79
2021/07/06 05:41:46;;;;;;;11.02;9.70;;;845.50;1945.60;;;;;;5055696;28;20017;-79
2021/07/06 05:44:12;;;;;;;10.82;9.73;;;819.50;2022.40;;;;;;5055373;28;20049;-79
2021/07/06 05:46:38;;;;;;;10.98;9.77;;;794.00;2124.80;;;;;;5055656;28;20053;-72
2021/07/06 05:49:04;;;;;;;12.55;10.02;;;768.40;2176.00;;;;;;5054291;28;20055;-73
2021/07/06 05:51:29;;;;;;;11.38;10.18;;;743.00;2252.80;;;;;;5055776;28;20096;-71
2021/07/06 05:53:55;;;;;;;11.00;9.90;;;742.40;2329.60;;;;;;5055379;28;20403;-72
2021/07/06 05:56:21;;;;;;;11.48;10.30;;;717.50;2355.20;;;;;;5055240;28;20032;-78
2021/07/06 05:58:47;;;;;;;12.52;10.73;;;717.10;2432.00;;;;;;5055501;28;20102;-74
2021/07/06 06:01:14;;;;;;;11.30;9.90;;;716.90;2432.00;;;;;;5054543;28;20017;-76
2021/07/06 06:03:40;;;;;;;11.30;10.20;;;692.10;2432.00;;;;;;5054999;28;20029;-73
2021/07/06 06:06:08;;;;;;;11.48;10.27;;;691.90;2432.00;;;;;;5055074;28;20029;-72
2021/07/06 06:08:35;;;;;;;11.60;10.40;;;691.90;2432.00;;;;;;5055232;28;20383;-72
2021/07/06 06:11:01;;;;;;;13.10;10.40;;;691.90;2432.00;;;;;;5055300;28;20037;-73
2021/07/06 06:13:27;;;;;;;14.02;10.50;;;691.90;2432.00;;;;;;5055250;28;20029;-72
2021/07/06 06:15:53;;;;;;;11.40;10.20;;;691.90;2432.00;;;;;;5055042;28;20479;-72
2021/07/06 06:18:18;;;;;;;11.40;10.07;;;716.80;2432.00;;;;;;5054961;28;20076;-74
2021/07/06 06:20:44;;;;;;;11.35;10.02;;;716.80;2432.00;;;;;;5061433;28;20021;-67
2021/07/06 06:23:10;;;;;;;11.77;10.57;;;716.80;2432.00;;;;;;5059671;28;20052;-73
2021/07/06 06:25:35;;;;;;;13.00;9.73;;;716.80;2432.00;;;;;;5055173;28;20029;-73
2021/07/06 06:28:01;;;;;;;11.15;9.90;;;716.80;2432.00;;;;;;5054822;28;20051;-73
2021/07/06 06:30:27;;;;;;;12.23;9.73;;;717.10;2432.00;;;;;;5054652;28;20078;-73
2021/07/06 06:32:55;;;;;;;11.23;10.05;;;717.30;2432.00;;;;;;5054631;28;20032;-79
2021/07/06 06:35:21;;;;;;;14.77;9.88;;;717.40;2432.00;;;;;;5054633;28;20017;-79
2021/07/06 06:37:46;;;;;;;10.57;9.25;;;717.40;2432.00;;;;;;5054501;28;20381;-79
2021/07/06 06:40:12;;;;;;;10.38;9.38;;;717.50;2432.00;;;;;;5054502;28;20021;-80
2021/07/06 06:42:39;;;;;;;11.07;9.95;;;717.50;2432.00;;;;;;5054506;28;20045;-80
2021/07/06 06:45:06;;;;;;;10.95;9.85;;;717.70;2432.00;;;;;;5054488;28;20025;-78
2021/07/06 06:47:33;;;;;;;12.18;9.60;;;742.40;2432.00;;;;;;5055030;28;20029;-80
2021/07/06 06:49:59;;;;;;;13.13;9.55;;;742.50;2432.00;;;;;;5054446;28;20032;-80
2021/07/06 06:52:25;;;;;;;10.70;9.60;;;742.70;2432.00;;;;;;5054663;28;20033;-80
2021/07/06 06:54:50;;;;;;;10.55;9.45;;;742.80;2432.00;;;;;;5054330;28;20071;-78
2021/07/06 06:57:21;;;;;;;10.30;9.30;;;742.90;2432.00;;;;;;5054732;28;20025;-80
2021/07/06 06:59:48;;;;;;;12.10;9.55;;;742.80;2432.00;;;;;;5054297;28;20474;-80
2021/07/06 07:02:17;;;;;;;10.77;9.70;;;742.90;2432.00;;;;;;5054543;28;20497;-74
2021/07/06 07:04:44;;;;;;;10.85;9.25;;;743.00;2432.00;;;;;;5054383;28;20393;-80
2021/07/06 07:07:11;;;;;;;11.93;9.75;;;743.20;2432.00;;;;;;5053999;28;20375;-79
2021/07/06 07:09:37;;;;;;;11.05;9.75;;;768.10;2432.00;;;;;;5054111;28;20032;-81
2021/07/06 07:12:03;;;;;;;11.88;9.02;;;768.40;2432.00;;;;;;5053186;28;20092;-74
2021/07/06 07:14:28;;;;;;;10.50;9.25;;;768.40;2432.00;;;;;;5053622;28;20114;-75
2021/07/06 07:16:54;;;;;;;10.50;9.32;;;768.70;2432.00;;;;;;5054094;28;20025;-75
2021/07/06 07:19:20;;;;;;;10.23;9.23;;;794.00;2406.40;;;;;;5053672;28;20481;-76
2021/07/06 07:21:45;;;;;;;10.57;8.88;;;844.90;2304.00;;;;;;5053998;28;20021;-74
2021/07/06 07:24:11;;;;;;;11.40;9.02;;;921.60;2124.80;;;;;;5053429;28;20017;-75
2021/07/06 07:26:37;;;;;;;9.25;8.35;;;998.80;1894.40;;;;;;5053602;28;20045;-76
2021/07/06 07:29:05;;;;;;;17.65;8.80;;;1075.30;1664.00;;;;;;5053482;28;20368;-76
2021/07/06 07:31:31;;;;;;;9.68;8.27;;;1126.40;1536.00;;;;;;5053859;28;20111;-81
2021/07/06 07:33:57;;;;;;;9.23;8.32;;;1152.20;1433.60;;;;;;5053800;28;20441;-81
2021/07/06 07:36:24;;;;;;;8.68;7.88;;;1177.60;1382.40;;;;;;5053369;28;20021;-77
2021/07/06 07:38:49;;;;;;;8.95;8.05;;;1178.20;1305.60;;;;;;5053346;28;20067;-76
2021/07/06 07:41:15;;;;;;;9.50;8.40;;;1152.20;1331.20;;;;;;5053322;28;20045;-75
2021/07/06 07:43:41;;;;;;;9.13;8.23;;;1100.80;1382.40;;;;;;5053053;28;20403;-73
2021/07/06 07:46:07;;;;;;;9.75;8.35;;;1024.40;1459.20;;;;;;5053159;28;20158;-74
2021/07/06 07:48:32;;;;;;;9.57;8.43;;;973.70;1510.40;;;;;;5053528;28;20382;-74
2021/07/06 07:50:58;;;;;;;9.68;8.63;;;948.10;1536.00;;;;;;5053192;28;20049;-74
2021/07/06 07:53:23;;;;;;;11.85;8.15;;;947.90;1587.20;;;;;;5053209;28;20033;-74
2021/07/06 07:55:52;;;;;;;10.07;7.63;;;973.20;1536.00;;;;;;5053129;28;20064;-75
2021/07/06 07:58:17;;;;;;;9.77;7.68;;;1049.70;1484.80;;;;;;5053051;28;20029;-74
2021/07/06 08:00:43;;;;;;;10.63;7.90;;;1126.70;1382.40;;;;;;5039026;28;20027;-74
2021/07/06 08:03:09;;;;;;;16.52;8.55;;;1178.20;1280.00;;;;;;5052824;28;20501;-73
2021/07/06 08:05:34;;;;;;;8.43;7.53;;;1229.20;1254.40;;;;;;5052918;28;20029;-75
2021/07/06 08:08:00;;;;;;;8.27;7.40;;;1255.00;1203.20;;;;;;5052997;28;20497;-76
2021/07/06 08:10:26;;;;;;;9.10;7.65;;;1280.90;1152.00;;;;;;5052997;28;20036;-75
2021/07/06 08:12:52;;;;;;;11.52;7.00;;;1306.00;1126.40;;;;;;5052708;28;20498;-74
2021/07/06 08:15:17;;;;;;;7.78;6.97;;;1331.20;1126.40;;;;;;5052719;28;20021;-74
2021/07/06 08:17:43;;;;;;;7.68;6.90;;;1332.10;1126.40;;;;;;5052676;28;20017;-74
2021/07/06 08:20:10;;;;;;;7.30;6.55;;;1357.40;1126.40;;;;;;5052793;28;20024;-74
2021/07/06 08:22:36;;;;;;;10.32;7.20;;;1357.40;1100.80;;;;;;5052822;28;20017;-75
2021/07/06 08:25:02;;;;;;;10.23;7.93;;;1357.10;1100.80;;;;;;5052541;28;20013;-75
2021/07/06 08:27:28;;;;;;;7.68;6.63;;;1357.20;1100.80;;;;;;5052540;28;20021;-75
2021/07/06 08:29:54;;;;;;;7.55;6.85;;;1331.60;1075.20;;;;;;5052600;28;20048;-74
2021/07/06 08:32:19;;;;;;;8.55;7.00;;;1280.50;1075.20;;;;;;5052219;28;20052;-72
2021/07/06 08:34:45;;;;;;;9.65;7.57;;;1255.10;1100.80;;;;;;5052829;28;20036;-77
2021/07/06 08:37:11;;;;;;;8.73;6.95;;;1280.50;1100.80;;;;;;5052775;28;20091;-79
2021/07/06 08:39:37;;;;;;;8.98;6.45;;;1305.90;1100.80;;;;;;5052443;28;20021;-80
2021/07/06 08:42:06;;;;;;;11.65;6.55;;;1332.10;1075.20;;;;;;5052302;28;20036;-79
2021/07/06 08:44:35;;;;;;;10.15;6.40;;;1357.10;1075.20;;;;;;5051036;28;20045;-73
2021/07/06 08:47:01;;;;;;;7.50;6.80;;;1382.40;1075.20;;;;;;5052638;28;20025;-72
2021/07/06 08:49:27;;;;;;;8.20;7.10;;;1357.40;1075.20;;;;;;5052177;28;20025;-73
2021/07/06 08:51:54;;;;;;;9.48;6.90;;;1332.10;1075.20;;;;;;5051047;28;20116;-78
2021/07/06 08:54:20;;;;;;;7.70;6.90;;;1255.30;1100.80;;;;;;5052601;28;20048;-76
2021/07/06 08:56:49;;;;;;;7.82;6.75;;;1178.20;1126.40;;;;;;5051944;28;20487;-76
2021/07/06 08:59:15;;;;;;;8.77;7.30;;;1101.70;1203.20;;;;;;5051155;28;20044;-77
2021/07/06 09:01:40;;;;;;;10.88;7.97;;;1075.30;1254.40;;;;;;5052213;28;20395;-76
2021/07/06 09:04:06;;;;;;;8.70;7.53;;;1024.70;1280.00;;;;;;5051989;28;20021;-73
2021/07/06 09:06:54;;;;;;;9.68;7.47;;;998.50;1356.80;;;;;;5052334;28;20475;-79
2021/07/06 09:09:22;;;;;;;8.57;6.60;;;972.80;1356.80;;;;;;5053851;28;20395;-79
2021/07/06 09:11:53;;;;;;;7.70;6.53;;;947.50;1356.80;;;;;;5051110;28;20129;-78
2021/07/06 09:14:20;;;;;;;8.25;7.30;;;922.30;1382.40;;;;;;5051978;28;20025;-77
2021/07/06 09:16:47;;;;;;;10.95;7.07;;;896.90;1408.00;;;;;;5052253;28;20048;-77
2021/07/06 09:19:24;;;;;;;9.65;7.35;;;896.30;1433.60;;;;;;5052499;28;20024;-78
2021/07/06 09:22:33;;;;;;;10.30;7.32;;;871.30;1459.20;;;;;;5052479;28;20371;-79
2021/07/06 09:25:06;;;;;;;8.07;7.13;;;871.10;1484.80;;;;;;5039731;28;20032;-78
2021/07/06 09:27:33;;;;;;;7.50;6.20;;;871.10;1484.80;;;;;;5049972;28;20090;-75
2021/07/06 09:30:14;;;;;;;9.32;6.50;;;870.90;1484.80;;;;;;5057794;28;20037;-64
2021/07/06 09:32:54;;;;;;;7.55;6.78;;;870.70;1484.80;;;;;;5063642;28;20032;-65
2021/07/06 09:35:28;;;;;;;8.15;6.70;;;870.70;1510.40;;;;;;5061504;28;20021;-71
2021/07/06 09:38:06;;;;;;;7.78;6.93;;;870.70;1510.40;;;;;;5062733;28;20136;-69
2021/07/06 09:40:33;;;;;;;7.75;6.95;;;870.60;1510.40;;;;;;5055409;28;20013;-73
2021/07/06 09:43:14;;;;;;;8.27;7.40;;;870.70;1510.40;;;;;;5055686;28;20096;-75
2021/07/06 09:45:41;;;;;;;7.70;6.75;;;870.50;1510.40;;;;;;5056118;28;20093;-80
2021/07/06 09:48:08;;;;;;;8.45;7.30;;;870.60;1510.40;;;;;;5055707;28;20025;-77
2021/07/06 09:50:34;;;;;;;9.18;7.45;;;870.70;1536.00;;;;;;5056063;28;20162;-79
2021/07/06 09:53:01;;;;;;;8.20;7.15;;;870.70;1510.40;;;;;;5055330;28;20112;-78
2021/07/06 09:55:30;;;;;;;7.88;7.07;;;870.70;1536.00;;;;;;5055395;28;20144;-73
2021/07/06 09:57:56;;;;;;;7.80;7.00;;;870.50;1536.00;;;;;;5055502;28;20395;-71
2021/07/06 10:00:22;;;;;;;8.20;6.95;;;870.50;1536.00;;;;;;5054979;28;20036;-73
2021/07/06 10:02:48;;;;;;;8.05;6.93;;;870.60;1510.40;;;;;;5055223;28;20032;-78
2021/07/06 10:05:20;;;;;;;8.30;7.03;;;870.70;1510.40;;;;;;5054980;28;20553;-78
2021/07/06 10:07:46;;;;;;;9.45;7.43;;;870.90;1536.00;;;;;;5055406;28;20025;-79
2021/07/06 10:10:13;;;;;;;9.15;7.78;;;870.90;1536.00;;;;;;5055118;28;20028;-73
2021/07/06 10:12:42;;;;;;;8.10;6.95;;;871.10;1536.00;;;;;;5055191;28;20377;-73
2021/07/06 10:15:10;;;;;;;7.65;6.45;;;871.10;1510.40;;;;;;5053806;28;20483;-74
2021/07/06 10:17:37;;;;;;;9.85;6.90;;;871.00;1484.80;;;;;;5054809;28;20059;-72
2021/07/06 10:20:08;;;;;;;7.80;6.40;;;871.10;1484.80;;;;;;5054867;28;20391;-77
2021/07/06 10:22:34;;;;;;;8.27;6.22;;;871.00;1484.80;;;;;;5054547;28;20017;-76
2021/07/06 10:25:05;;;;;;;6.93;6.22;;;870.90;1484.80;;;;;;5054774;28;20337;-76
2021/07/06 10:27:34;;;;;;;7.25;6.30;;;870.70;1510.40;;;;;;5054342;28;20075;-72
2021/07/06 10:30:30;;;;;;;8.07;5.80;;;870.70;1484.80;;;;;;5054765;28;20029;-77
2021/07/06 10:32:58;;;;;;;6.60;5.88;;;870.90;1484.80;;;;;;5059267;28;20521;-74
2021/07/06 10:35:42;;;;;;;7.47;6.47;;;870.90;1484.80;;;;;;5054577;28;20045;-73
2021/07/06 10:38:33;;;;;;;8.07;6.53;;;870.90;1484.80;;;;;;5053042;28;20021;-77
2021/07/06 10:41:19;;;;;;;9.75;7.00;;;871.00;1510.40;;;;;;5054611;28;20469;-76
2021/07/06 10:43:45;;;;;;;7.43;6.20;;;870.80;1510.40;;;;;;5054200;28;20503;-76
2021/07/06 10:46:30;;;;;;;7.50;6.43;;;870.80;1510.40;;;;;;5054151;28;20036;-76
2021/07/06 10:49:14;;;;;;;7.35;6.57;;;870.80;1459.20;;;;;;5054290;28;20017;-76
2021/07/06 10:51:39;;;;;;;7.85;5.97;;;870.80;1459.20;;;;;;5054349;28;20029;-73
2021/07/06 10:54:18;;;;;;;9.93;6.50;;;870.70;1484.80;;;;;;5054361;28;20024;-73
2021/07/06 10:56:48;;;;;;;8.80;6.28;;;870.60;1484.80;;;;;;5053839;28;20390;-72
2021/07/06 10:59:23;;;;;;;7.03;6.35;;;870.70;1484.80;;;;;;5054633;28;20435;-72
2021/07/06 11:01:49;;;;;;;7.13;6.35;;;870.70;1484.80;;;;;;5054124;28;20056;-73
2021/07/06 11:04:54;;;;;;;6.63;5.93;;;870.80;1484.80;;;;;;5054156;28;20455;-73
2021/07/06 11:07:29;;;;;;;7.43;6.55;;;871.00;1459.20;;;;;;5051593;28;20094;-71
2021/07/06 11:09:55;;;;;;;8.45;6.47;;;871.10;1459.20;;;;;;5051743;28;20095;-72
2021/07/06 11:12:26;;;;;;;8.18;6.85;;;870.90;1484.80;;;;;;5045444;28;20494;-72
2021/07/06 11:14:56;;;;;;;7.20;6.45;;;870.90;1484.80;;;;;;5053772;28;20029;-72
2021/07/06 11:17:48;;;;;;;10.65;6.65;;;870.90;1459.20;;;;;;5053663;28;20486;-73
2021/07/06 11:20:28;;;;;;;7.55;6.68;;;871.00;1459.20;;;;;;5054076;28;20029;-77
2021/07/06 11:22:56;;;;;;;8.35;6.28;;;870.90;1484.80;;;;;;5053634;28;20366;-77
2021/07/06 11:25:39;;;;;;;7.32;6.40;;;870.90;1484.80;;;;;;5053719;28;20444;-73
2021/07/06 11:28:18;;;;;;;7.10;6.40;;;870.90;1459.20;;;;;;5053529;28;20029;-70
2021/07/06 11:30:54;;;;;;;8.45;6.18;;;871.00;1459.20;;;;;;5053452;28;20025;-69
2021/07/06 11:33:25;;;;;;;8.07;6.55;;;871.00;1484.80;;;;;;5053257;28;20032;-70
2021/07/06 11:36:22;;;;;;;8.75;6.07;;;871.10;1459.20;;;;;;5053537;28;20360;-72
2021/07/06 11:38:50;;;;;;;12.55;6.60;;;871.10;1459.20;;;;;;5052879;28;20043;-72
2021/07/06 11:41:18;;;;;;;7.25;5.90;;;871.30;1484.80;;;;;;5053300;28;20017;-72
2021/07/06 11:43:45;;;;;;;6.80;5.88;;;896.70;1408.00;;;;;;5053174;28;20048;-74
2021/07/06 11:46:26;;;;;;;7.20;5.90;;;921.60;1433.60;;;;;;5053229;28;20036;-73
2021/07/06 11:48:52;;;;;;;9.48;5.85;;;922.00;1408.00;;;;;;5053526;28;20438;-72
2021/07/06 11:51:21;;;;;;;7.82;5.55;;;922.30;1382.40;;;;;;5052865;28;20025;-73
2021/07/06 11:53:53;;;;;;;7.72;6.20;;;922.50;1382.40;;;;;;5053082;28;20032;-71
2021/07/06 11:56:23;;;;;;;6.18;5.57;;;922.50;1382.40;;;;;;5052843;28;20063;-72
2021/07/06 11:58:49;;;;;;;8.02;5.78;;;947.30;1356.80;;;;;;5052311;28;20051;-74
2021/07/06 12:15:16;;;;;;;7.05;6.03;;;947.50;1356.80;;;;;;5094589;27;20882;-70
2021/07/06 12:17:48;;;;;;;7.07;5.80;;;922.40;1382.40;;;;;;5094489;28;20073;-72
2021/07/06 12:20:16;;;;;;;7.82;5.90;;;922.40;1356.80;;;;;;5094147;28;20024;-73
2021/07/06 12:22:42;;;;;;;6.68;5.47;;;922.40;1382.40;;;;;;5093511;28;20024;-73
2021/07/06 12:25:09;;;;;;;6.68;5.40;;;922.40;1382.40;;;;;;5093061;28;20099;-72